ANZ95 KSLC-NZAA
Flight info
| Callsign | ANZ95 |
|---|---|
| Flight time | N/A |
| Altitude | 36000 |
| Route | ARCHZ1 MLF DCT BLIPP Q70 LAS J100 LAX DCT FICKY B200 TATAS Q912 OKTUB |
| Aircraft | B77W/H-SDE1E2E3FGHIJ2J3J4J5M1RWXY/LB1D1 |
Departure
| Time | 2026-04-30 15:08 |
|---|---|
| Airport | Salt Lake City International Airport (KSLC) |
Arrival
| Time | N/A |
|---|---|
| Airport | Auckland International Airport (NZAA) |
| Time | Latitude | Longitude | Altitude | Speed | Heading |
|---|---|---|---|---|---|
| 2026-04-30 14:41 | 40.78647 | -111.98431 | 4235 ft | 0 kts | 164° |
| 2026-04-30 15:01 | 40.78658 | -111.98436 | 4235 ft | 4 kts | 164° |
| 2026-04-30 15:01 | 40.78675 | -111.98442 | 4235 ft | 3 kts | 164° |
| 2026-04-30 15:01 | 40.78706 | -111.98474 | 4234 ft | 4 kts | 90° |
| 2026-04-30 15:02 | 40.78705 | -111.98506 | 4233 ft | 4 kts | 85° |
| 2026-04-30 15:02 | 40.78703 | -111.98528 | 4234 ft | 0 kts | 85° |
| 2026-04-30 15:04 | 40.78703 | -111.98527 | 4235 ft | 2 kts | 85° |
| 2026-04-30 15:04 | 40.78738 | -111.98048 | 4236 ft | 21 kts | 85° |
| 2026-04-30 15:05 | 40.78571 | -111.97659 | 4235 ft | 21 kts | 175° |
| 2026-04-30 15:06 | 40.78274 | -111.97627 | 4235 ft | 21 kts | 175° |
| 2026-04-30 15:06 | 40.77977 | -111.97590 | 4235 ft | 21 kts | 171° |
| 2026-04-30 15:07 | 40.77687 | -111.97507 | 4236 ft | 21 kts | 174° |
| 2026-04-30 15:07 | 40.77463 | -111.97375 | 4235 ft | 19 kts | 66° |
| 2026-04-30 15:08 | 40.78063 | -111.97387 | 4236 ft | 102 kts | 354° |
| 2026-04-30 15:08 | 40.81822 | -111.97915 | 4932 ft | 224 kts | 347° |
| 2026-04-30 15:09 | 40.83828 | -112.00907 | 6232 ft | 249 kts | 272° |
| 2026-04-30 15:09 | 40.82584 | -112.05362 | 7585 ft | 274 kts | 246° |
| 2026-04-30 15:10 | 40.80983 | -112.10067 | 9457 ft | 287 kts | 248° |
| 2026-04-30 15:11 | 40.78878 | -112.16501 | 11091 ft | 325 kts | 249° |
| 2026-04-30 15:11 | 40.76952 | -112.22465 | 11673 ft | 376 kts | 247° |
| 2026-04-30 15:12 | 40.70632 | -112.28466 | 14118 ft | 401 kts | 189° |
| 2026-04-30 15:13 | 40.64985 | -112.29480 | 15549 ft | 416 kts | 188° |
| 2026-04-30 15:14 | 40.53423 | -112.32309 | 18548 ft | 433 kts | 199° |
| 2026-04-30 15:14 | 40.44692 | -112.35971 | 20378 ft | 444 kts | 199° |
| 2026-04-30 15:16 | 40.29675 | -112.42111 | 22979 ft | 462 kts | 199° |
| 2026-04-30 15:17 | 40.17290 | -112.47420 | 24616 ft | 472 kts | 206° |
| 2026-04-30 15:18 | 40.02739 | -112.57672 | 26384 ft | 481 kts | 211° |
| 2026-04-30 15:19 | 39.93841 | -112.63915 | 27313 ft | 487 kts | 211° |
| 2026-04-30 17:39 | 26.58326 | -126.87504 | 36203 ft | 481 kts | 225° |
| 2026-04-30 17:42 | 26.37888 | -127.08476 | 36201 ft | 482 kts | 225° |
| 2026-04-30 17:43 | 26.25519 | -127.21117 | 36195 ft | 482 kts | 225° |
| 2026-04-30 17:44 | 26.10735 | -127.36175 | 36193 ft | 480 kts | 225° |
| 2026-04-30 17:47 | 25.88687 | -127.58533 | 36194 ft | 475 kts | 225° |
| 2026-04-30 17:48 | 25.71638 | -127.75742 | 36192 ft | 472 kts | 225° |
| 2026-04-30 17:50 | 25.52238 | -127.95238 | 36192 ft | 470 kts | 226° |
| 2026-04-30 17:52 | 25.37748 | -128.09742 | 36187 ft | 468 kts | 226° |
| 2026-04-30 17:54 | 25.16026 | -128.31394 | 36181 ft | 466 kts | 226° |
| 2026-04-30 17:56 | 24.96829 | -128.50439 | 36181 ft | 463 kts | 226° |
| 2026-04-30 17:58 | 24.82458 | -128.64642 | 36180 ft | 462 kts | 226° |
| 2026-04-30 18:00 | 24.63346 | -128.83459 | 36177 ft | 460 kts | 226° |
| 2026-04-30 18:01 | 24.51442 | -128.95139 | 36174 ft | 459 kts | 226° |
| 2026-04-30 18:02 | 24.37142 | -129.09129 | 36168 ft | 458 kts | 226° |
| 2026-04-30 18:04 | 24.22882 | -129.23035 | 36168 ft | 458 kts | 226° |
| 2026-04-30 18:06 | 24.03845 | -129.41533 | 36165 ft | 457 kts | 226° |
| 2026-04-30 18:08 | 23.87227 | -129.57618 | 36162 ft | 456 kts | 226° |
| 2026-04-30 18:10 | 23.68224 | -129.75941 | 36153 ft | 455 kts | 226° |
| 2026-04-30 18:11 | 23.54872 | -129.88772 | 36151 ft | 454 kts | 226° |
| 2026-04-30 18:13 | 23.43014 | -130.00138 | 36158 ft | 454 kts | 226° |
| 2026-04-30 18:14 | 23.31159 | -130.11474 | 36153 ft | 454 kts | 226° |
| 2026-04-30 18:15 | 23.16910 | -130.25053 | 36148 ft | 454 kts | 226° |
| 2026-04-30 18:16 | 23.07403 | -130.34093 | 36146 ft | 454 kts | 226° |
| 2026-04-30 18:17 | 23.02677 | -130.38582 | 36156 ft | 454 kts | 226° |
| 2026-04-30 18:18 | 22.95535 | -130.45356 | 36142 ft | 454 kts | 226° |
| 2026-04-30 18:18 | 22.90778 | -130.49863 | 36155 ft | 454 kts | 226° |
| 2026-04-30 18:19 | 22.86010 | -130.54375 | 36146 ft | 455 kts | 226° |
| 2026-04-30 18:19 | 22.81241 | -130.58884 | 36138 ft | 455 kts | 226° |
| 2026-04-30 18:20 | 22.76473 | -130.63387 | 36147 ft | 455 kts | 226° |
| 2026-04-30 18:20 | 22.71701 | -130.67891 | 36139 ft | 455 kts | 226° |
| 2026-04-30 18:21 | 22.66931 | -130.72388 | 36143 ft | 454 kts | 226° |
| 2026-04-30 18:21 | 22.62158 | -130.76884 | 36140 ft | 454 kts | 226° |
| 2026-04-30 18:22 | 22.57411 | -130.81351 | 36142 ft | 454 kts | 226° |
| 2026-04-30 18:22 | 22.50252 | -130.88079 | 36136 ft | 454 kts | 226° |
| 2026-04-30 18:23 | 22.45480 | -130.92559 | 36137 ft | 454 kts | 226° |
| 2026-04-30 18:23 | 22.40707 | -130.97035 | 36139 ft | 454 kts | 226° |
| 2026-04-30 18:24 | 22.33575 | -131.03716 | 36136 ft | 454 kts | 226° |
| 2026-04-30 18:25 | 22.28801 | -131.08182 | 36137 ft | 454 kts | 226° |
| 2026-04-30 18:25 | 22.21636 | -131.14878 | 36133 ft | 454 kts | 226° |
| 2026-04-30 18:26 | 22.14467 | -131.21569 | 36131 ft | 454 kts | 226° |
| 2026-04-30 18:27 | 22.07330 | -131.28221 | 36135 ft | 453 kts | 226° |
| 2026-04-30 18:28 | 22.00170 | -131.34885 | 36133 ft | 453 kts | 226° |
| 2026-04-30 18:28 | 21.93006 | -131.41542 | 36132 ft | 453 kts | 226° |
| 2026-04-30 18:29 | 21.83452 | -131.50407 | 36133 ft | 453 kts | 226° |
| 2026-04-30 18:30 | 21.74700 | -131.58514 | 36131 ft | 453 kts | 226° |
| 2026-04-30 18:31 | 21.67533 | -131.65142 | 36130 ft | 452 kts | 226° |
| 2026-04-30 18:32 | 21.60397 | -131.71733 | 36133 ft | 452 kts | 226° |
| 2026-04-30 18:33 | 21.53229 | -131.78344 | 36129 ft | 452 kts | 226° |
| 2026-04-30 18:33 | 21.46066 | -131.84942 | 36129 ft | 452 kts | 225° |
| 2026-04-30 18:34 | 21.38902 | -131.91531 | 36125 ft | 452 kts | 225° |
| 2026-04-30 18:35 | 21.34127 | -131.95919 | 36124 ft | 452 kts | 225° |
| 2026-04-30 18:35 | 21.29373 | -132.00283 | 36128 ft | 452 kts | 225° |
| 2026-04-30 18:36 | 21.22206 | -132.06855 | 36136 ft | 452 kts | 225° |
| 2026-04-30 18:37 | 21.15030 | -132.13427 | 36123 ft | 452 kts | 225° |
| 2026-04-30 18:37 | 21.10252 | -132.17798 | 36119 ft | 452 kts | 225° |
| 2026-04-30 18:38 | 21.05465 | -132.22173 | 36121 ft | 452 kts | 225° |
| 2026-04-30 18:38 | 21.00672 | -132.26550 | 36127 ft | 452 kts | 225° |
| 2026-04-30 18:39 | 20.95881 | -132.30921 | 36125 ft | 452 kts | 225° |
| 2026-04-30 18:39 | 20.91113 | -132.35267 | 36124 ft | 453 kts | 225° |
| 2026-04-30 18:40 | 20.86314 | -132.39638 | 36125 ft | 453 kts | 225° |
| 2026-04-30 18:40 | 20.81504 | -132.44016 | 36124 ft | 454 kts | 225° |
| 2026-04-30 18:41 | 20.79186 | -132.46124 | 36127 ft | 454 kts | 225° |
| 2026-04-30 18:41 | 20.75249 | -132.49702 | 36126 ft | 455 kts | 225° |
| 2026-04-30 18:42 | 20.70429 | -132.54080 | 36124 ft | 455 kts | 225° |
| 2026-04-30 18:42 | 20.63168 | -132.60667 | 36122 ft | 457 kts | 225° |
| 2026-04-30 18:45 | 20.36361 | -132.84912 | 36122 ft | 462 kts | 224° |
| 2026-04-30 18:46 | 20.31454 | -132.89338 | 36120 ft | 462 kts | 224° |
| 2026-04-30 18:46 | 20.26575 | -132.93734 | 36117 ft | 463 kts | 224° |
| 2026-04-30 18:47 | 20.21653 | -132.98166 | 36114 ft | 463 kts | 224° |
| 2026-04-30 18:47 | 20.16736 | -133.02589 | 36115 ft | 463 kts | 224° |
| 2026-04-30 18:48 | 20.11807 | -133.07019 | 36116 ft | 463 kts | 224° |
| 2026-04-30 18:48 | 20.06880 | -133.11444 | 36117 ft | 464 kts | 224° |
| 2026-04-30 18:49 | 20.01952 | -133.15866 | 36117 ft | 464 kts | 224° |
| 2026-04-30 18:49 | 19.97012 | -133.20295 | 36110 ft | 464 kts | 224° |
| 2026-04-30 18:50 | 19.92074 | -133.24718 | 36110 ft | 464 kts | 224° |
| 2026-04-30 18:50 | 19.87157 | -133.29118 | 36111 ft | 465 kts | 224° |
| 2026-04-30 18:51 | 19.82204 | -133.33548 | 36104 ft | 465 kts | 224° |
| 2026-04-30 18:51 | 19.77247 | -133.37977 | 36109 ft | 465 kts | 223° |
| 2026-04-30 18:52 | 19.72285 | -133.42407 | 36105 ft | 466 kts | 223° |
| 2026-04-30 18:52 | 19.67319 | -133.46837 | 36103 ft | 466 kts | 223° |
| 2026-04-30 18:53 | 19.62351 | -133.51264 | 36101 ft | 466 kts | 223° |
| 2026-04-30 18:53 | 19.57378 | -133.55693 | 36100 ft | 467 kts | 223° |
| 2026-04-30 18:54 | 19.52404 | -133.60118 | 36101 ft | 467 kts | 223° |
| 2026-04-30 18:54 | 19.47458 | -133.64516 | 36101 ft | 467 kts | 223° |
| 2026-04-30 18:55 | 19.42476 | -133.68941 | 36101 ft | 467 kts | 223° |
| 2026-04-30 18:55 | 19.34997 | -133.75577 | 36096 ft | 467 kts | 223° |
| 2026-04-30 18:56 | 19.27515 | -133.82208 | 36098 ft | 468 kts | 223° |
| 2026-04-30 18:57 | 19.20023 | -133.88841 | 36096 ft | 468 kts | 223° |
| 2026-04-30 18:57 | 19.15026 | -133.93259 | 36093 ft | 468 kts | 223° |
| 2026-04-30 18:58 | 19.07532 | -133.99879 | 36092 ft | 468 kts | 223° |
| 2026-04-30 18:59 | 19.00073 | -134.06460 | 36088 ft | 468 kts | 223° |
| 2026-04-30 19:00 | 18.90069 | -134.15274 | 36085 ft | 468 kts | 223° |
| 2026-04-30 19:01 | 18.80057 | -134.24081 | 36085 ft | 468 kts | 222° |
| 2026-04-30 19:02 | 18.72538 | -134.30686 | 36088 ft | 468 kts | 222° |
| 2026-04-30 19:03 | 18.62546 | -134.39450 | 36083 ft | 469 kts | 222° |
| 2026-04-30 19:04 | 18.52500 | -134.48249 | 36080 ft | 469 kts | 222° |
| 2026-04-30 19:05 | 18.42456 | -134.57031 | 36080 ft | 469 kts | 222° |
| 2026-04-30 19:06 | 18.32405 | -134.65807 | 36071 ft | 469 kts | 222° |
| 2026-04-30 19:06 | 18.24859 | -134.72385 | 36073 ft | 470 kts | 222° |
| 2026-04-30 19:07 | 18.17304 | -134.78965 | 36072 ft | 470 kts | 222° |
| 2026-04-30 19:08 | 18.07250 | -134.87708 | 36071 ft | 471 kts | 222° |
| 2026-04-30 19:09 | 17.99675 | -134.94287 | 36070 ft | 471 kts | 222° |
| 2026-04-30 19:09 | 17.94616 | -134.98676 | 36067 ft | 471 kts | 222° |
| 2026-04-30 19:10 | 17.85340 | -135.06715 | 36067 ft | 472 kts | 222° |
| 2026-04-30 19:11 | 17.80364 | -135.11024 | 36064 ft | 472 kts | 222° |
| 2026-04-30 19:12 | 17.75314 | -135.15393 | 36062 ft | 473 kts | 222° |
| 2026-04-30 19:12 | 17.70233 | -135.19785 | 36059 ft | 473 kts | 222° |
| 2026-04-30 19:13 | 17.60066 | -135.28564 | 36060 ft | 473 kts | 222° |
| 2026-04-30 19:14 | 17.55013 | -135.32922 | 36058 ft | 474 kts | 222° |
| 2026-04-30 19:14 | 17.49919 | -135.37313 | 36055 ft | 474 kts | 222° |
| 2026-04-30 19:15 | 17.44825 | -135.41700 | 36052 ft | 474 kts | 222° |
| 2026-04-30 19:15 | 17.37180 | -135.48278 | 36057 ft | 474 kts | 222° |
| 2026-04-30 19:16 | 17.32119 | -135.52629 | 36056 ft | 474 kts | 222° |
| 2026-04-30 19:17 | 17.24477 | -135.59192 | 36050 ft | 474 kts | 222° |
| 2026-04-30 19:17 | 17.17690 | -135.65015 | 36049 ft | 474 kts | 222° |
| 2026-04-30 19:18 | 17.10035 | -135.71576 | 36049 ft | 474 kts | 222° |
| 2026-04-30 19:19 | 17.04936 | -135.75943 | 36047 ft | 474 kts | 222° |
| 2026-04-30 19:19 | 16.97280 | -135.82493 | 36046 ft | 474 kts | 222° |
| 2026-04-30 19:20 | 16.92206 | -135.86832 | 36043 ft | 474 kts | 222° |
| 2026-04-30 19:21 | 16.84543 | -135.93374 | 36043 ft | 474 kts | 222° |
| 2026-04-30 19:22 | 16.74315 | -136.02088 | 36041 ft | 475 kts | 222° |
| 2026-04-30 19:23 | 16.58979 | -136.15139 | 36037 ft | 475 kts | 222° |
| 2026-04-30 19:24 | 16.51276 | -136.21684 | 36028 ft | 476 kts | 222° |
| 2026-04-30 19:25 | 16.38438 | -136.32577 | 36027 ft | 476 kts | 222° |
| 2026-04-30 19:26 | 16.28189 | -136.41258 | 36037 ft | 476 kts | 222° |
| 2026-04-30 19:27 | 16.20477 | -136.47783 | 36025 ft | 477 kts | 222° |
| 2026-04-30 19:28 | 16.12749 | -136.54315 | 36030 ft | 477 kts | 222° |
| 2026-04-30 19:29 | 16.02470 | -136.62992 | 36030 ft | 477 kts | 222° |
| 2026-04-30 19:30 | 15.92155 | -136.71688 | 36031 ft | 477 kts | 222° |
| 2026-04-30 19:31 | 15.81818 | -136.80390 | 36024 ft | 478 kts | 222° |
| 2026-04-30 19:31 | 15.74099 | -136.86881 | 36019 ft | 478 kts | 222° |
| 2026-04-30 19:32 | 15.68927 | -136.91226 | 36023 ft | 478 kts | 222° |
| 2026-04-30 19:32 | 15.63751 | -136.95572 | 36024 ft | 478 kts | 222° |
| 2026-04-30 19:33 | 15.58574 | -136.99916 | 36026 ft | 479 kts | 223° |
| 2026-04-30 19:33 | 15.53396 | -137.04257 | 36021 ft | 479 kts | 223° |
| 2026-04-30 19:34 | 15.48215 | -137.08598 | 36023 ft | 479 kts | 223° |
| 2026-04-30 19:35 | 15.40443 | -137.15105 | 36018 ft | 479 kts | 223° |
| 2026-04-30 19:35 | 15.35264 | -137.19438 | 36016 ft | 478 kts | 223° |
| 2026-04-30 19:36 | 15.30114 | -137.23743 | 36019 ft | 478 kts | 223° |
| 2026-04-30 19:36 | 15.22342 | -137.30235 | 36014 ft | 478 kts | 223° |
| 2026-04-30 19:37 | 15.17164 | -137.34557 | 36013 ft | 478 kts | 223° |
| 2026-04-30 19:37 | 15.11989 | -137.38873 | 36012 ft | 478 kts | 223° |
| 2026-04-30 19:38 | 15.06808 | -137.43191 | 36010 ft | 478 kts | 223° |
| 2026-04-30 19:38 | 15.01630 | -137.47505 | 36010 ft | 478 kts | 223° |
| 2026-04-30 19:39 | 14.96446 | -137.51820 | 36009 ft | 478 kts | 223° |
| 2026-04-30 19:39 | 14.91261 | -137.56134 | 36011 ft | 478 kts | 223° |
| 2026-04-30 19:40 | 14.86081 | -137.60440 | 36012 ft | 478 kts | 223° |
| 2026-04-30 19:40 | 14.81775 | -137.64019 | 36006 ft | 478 kts | 223° |
| 2026-04-30 19:41 | 14.79336 | -137.66044 | 36010 ft | 478 kts | 223° |
| 2026-04-30 19:41 | 14.74186 | -137.70320 | 36010 ft | 478 kts | 223° |
| 2026-04-30 19:42 | 14.68998 | -137.74624 | 36008 ft | 478 kts | 223° |
| 2026-04-30 19:42 | 14.63813 | -137.78924 | 36009 ft | 478 kts | 223° |
| 2026-04-30 19:43 | 14.58629 | -137.83219 | 36006 ft | 478 kts | 223° |
| 2026-04-30 19:44 | 14.50845 | -137.89665 | 36004 ft | 478 kts | 223° |
| 2026-04-30 19:44 | 14.45655 | -137.93958 | 36000 ft | 478 kts | 223° |
| 2026-04-30 19:45 | 14.40494 | -137.98226 | 36004 ft | 478 kts | 223° |
| 2026-04-30 19:45 | 14.35305 | -138.02514 | 35999 ft | 478 kts | 223° |
| 2026-04-30 19:46 | 14.30111 | -138.06803 | 36001 ft | 478 kts | 223° |
| 2026-04-30 19:46 | 14.24913 | -138.11093 | 35999 ft | 478 kts | 223° |
| 2026-04-30 19:47 | 14.19717 | -138.15379 | 36000 ft | 478 kts | 223° |
| 2026-04-30 19:47 | 14.14516 | -138.19666 | 35996 ft | 478 kts | 223° |
| 2026-04-30 19:48 | 14.09317 | -138.23949 | 35998 ft | 479 kts | 222° |
| 2026-04-30 19:48 | 14.04151 | -138.28203 | 35995 ft | 479 kts | 222° |
| 2026-04-30 19:49 | 13.98946 | -138.32486 | 35997 ft | 479 kts | 222° |
| 2026-04-30 19:49 | 13.91131 | -138.38912 | 35993 ft | 479 kts | 222° |
| 2026-04-30 19:50 | 13.85919 | -138.43194 | 35994 ft | 479 kts | 222° |
| 2026-04-30 19:50 | 13.80737 | -138.47449 | 35994 ft | 479 kts | 222° |
| 2026-04-30 19:51 | 13.75527 | -138.51724 | 35995 ft | 479 kts | 222° |
| 2026-04-30 19:51 | 13.70316 | -138.55998 | 35993 ft | 479 kts | 222° |
| 2026-04-30 19:52 | 13.65103 | -138.60271 | 35990 ft | 479 kts | 222° |
| 2026-04-30 19:52 | 13.59888 | -138.64543 | 35992 ft | 479 kts | 222° |
| 2026-04-30 19:53 | 13.54670 | -138.68816 | 35992 ft | 479 kts | 222° |
| 2026-04-30 19:53 | 13.49454 | -138.73084 | 35989 ft | 480 kts | 222° |
| 2026-04-30 19:54 | 13.44228 | -138.77358 | 35988 ft | 480 kts | 222° |
| 2026-04-30 19:54 | 13.39026 | -138.81609 | 35989 ft | 480 kts | 222° |
| 2026-04-30 19:55 | 13.33796 | -138.85882 | 35987 ft | 480 kts | 222° |
| 2026-04-30 19:55 | 13.28565 | -138.90152 | 35987 ft | 480 kts | 222° |
| 2026-04-30 19:56 | 13.23323 | -138.94429 | 35984 ft | 480 kts | 222° |
| 2026-04-30 19:56 | 13.18119 | -138.98673 | 35984 ft | 481 kts | 222° |
| 2026-04-30 19:57 | 13.12879 | -139.02944 | 35988 ft | 481 kts | 222° |
| 2026-04-30 19:57 | 13.07639 | -139.07212 | 35983 ft | 481 kts | 222° |
| 2026-04-30 19:58 | 13.02402 | -139.11475 | 35982 ft | 481 kts | 222° |
| 2026-04-30 19:58 | 12.97162 | -139.15738 | 35981 ft | 481 kts | 222° |
| 2026-04-30 19:59 | 12.91916 | -139.20004 | 35981 ft | 481 kts | 222° |
| 2026-04-30 20:00 | 12.84056 | -139.26392 | 35978 ft | 481 kts | 222° |
| 2026-04-30 20:00 | 12.78814 | -139.30649 | 35982 ft | 481 kts | 222° |
| 2026-04-30 20:01 | 12.70984 | -139.37003 | 35978 ft | 481 kts | 222° |
| 2026-04-30 20:01 | 12.65707 | -139.41283 | 35979 ft | 480 kts | 222° |
| 2026-04-30 20:02 | 12.57875 | -139.47631 | 35982 ft | 481 kts | 222° |
| 2026-04-30 20:03 | 12.50008 | -139.54001 | 35978 ft | 481 kts | 222° |
| 2026-04-30 20:03 | 12.44759 | -139.58248 | 35978 ft | 481 kts | 222° |
| 2026-04-30 20:04 | 12.39509 | -139.62495 | 35971 ft | 481 kts | 221° |
| 2026-04-30 20:05 | 12.32518 | -139.68146 | 35973 ft | 481 kts | 221° |
| 2026-04-30 20:05 | 12.24645 | -139.74505 | 35971 ft | 481 kts | 221° |
| 2026-04-30 20:06 | 12.19389 | -139.78748 | 35972 ft | 481 kts | 221° |
| 2026-04-30 20:06 | 12.14134 | -139.82988 | 35967 ft | 481 kts | 221° |
| 2026-04-30 20:07 | 12.08872 | -139.87231 | 35966 ft | 481 kts | 221° |
| 2026-04-30 20:08 | 12.00982 | -139.93589 | 35971 ft | 482 kts | 221° |
| 2026-04-30 20:08 | 11.95750 | -139.97802 | 35972 ft | 482 kts | 221° |
| 2026-04-30 20:09 | 11.90448 | -140.02069 | 35966 ft | 482 kts | 221° |
| 2026-04-30 20:09 | 11.82577 | -140.08401 | 35965 ft | 482 kts | 221° |
| 2026-04-30 20:10 | 11.74661 | -140.14763 | 35964 ft | 483 kts | 221° |
| 2026-04-30 20:11 | 11.70344 | -140.18231 | 35963 ft | 483 kts | 221° |
| 2026-04-30 20:11 | 11.65065 | -140.22470 | 35961 ft | 483 kts | 221° |
| 2026-04-30 20:12 | 11.57140 | -140.28830 | 35967 ft | 483 kts | 221° |
| 2026-04-30 20:13 | 11.51850 | -140.33072 | 35959 ft | 483 kts | 221° |
| 2026-04-30 20:13 | 11.46562 | -140.37311 | 35962 ft | 484 kts | 221° |
| 2026-04-30 20:14 | 11.41306 | -140.41522 | 35961 ft | 484 kts | 221° |
| 2026-04-30 20:14 | 11.36009 | -140.45764 | 35961 ft | 484 kts | 221° |
| 2026-04-30 20:15 | 11.30706 | -140.50008 | 35961 ft | 484 kts | 221° |
| 2026-04-30 20:15 | 11.25400 | -140.54254 | 35956 ft | 484 kts | 221° |
| 2026-04-30 20:16 | 11.20102 | -140.58490 | 35961 ft | 484 kts | 221° |
| 2026-04-30 20:16 | 11.14834 | -140.62700 | 35954 ft | 484 kts | 221° |
| 2026-04-30 20:17 | 11.09528 | -140.66939 | 35950 ft | 485 kts | 221° |
| 2026-04-30 20:17 | 11.04219 | -140.71178 | 35958 ft | 485 kts | 221° |
| 2026-04-30 20:18 | 10.98906 | -140.75418 | 35955 ft | 485 kts | 221° |
| 2026-04-30 20:18 | 10.93593 | -140.79657 | 35951 ft | 485 kts | 221° |
| 2026-04-30 20:19 | 10.88271 | -140.83901 | 35948 ft | 486 kts | 221° |
| 2026-04-30 20:19 | 10.82947 | -140.88144 | 35963 ft | 486 kts | 221° |
| 2026-04-30 20:20 | 10.77622 | -140.92386 | 35952 ft | 487 kts | 221° |
| 2026-04-30 20:20 | 10.72290 | -140.96632 | 35947 ft | 487 kts | 221° |
| 2026-04-30 20:21 | 10.66984 | -141.00855 | 35950 ft | 487 kts | 221° |
| 2026-04-30 20:21 | 10.61643 | -141.05104 | 35964 ft | 487 kts | 221° |
| 2026-04-30 20:22 | 10.56295 | -141.09357 | 35962 ft | 488 kts | 221° |
| 2026-04-30 20:22 | 10.50948 | -141.13607 | 35944 ft | 488 kts | 221° |
| 2026-04-30 20:23 | 10.45596 | -141.17860 | 35942 ft | 488 kts | 221° |
| 2026-04-30 20:23 | 10.40247 | -141.22109 | 35938 ft | 488 kts | 221° |
| 2026-04-30 20:24 | 10.34893 | -141.26359 | 35953 ft | 488 kts | 221° |
| 2026-04-30 20:24 | 10.29572 | -141.30576 | 35940 ft | 488 kts | 221° |
| 2026-04-30 20:25 | 10.21529 | -141.36948 | 35952 ft | 489 kts | 221° |
| 2026-04-30 20:26 | 10.13474 | -141.43329 | 35940 ft | 489 kts | 221° |
| 2026-04-30 20:26 | 10.05458 | -141.49674 | 35945 ft | 489 kts | 221° |
| 2026-04-30 20:27 | 9.94723 | -141.58166 | 35950 ft | 489 kts | 221° |
| 2026-04-30 20:28 | 9.83978 | -141.66659 | 35948 ft | 489 kts | 221° |
| 2026-04-30 20:30 | 9.70545 | -141.77265 | 35947 ft | 490 kts | 221° |
| 2026-04-30 20:31 | 9.54451 | -141.89957 | 35938 ft | 489 kts | 221° |
| 2026-04-30 20:32 | 9.41022 | -142.00537 | 35938 ft | 488 kts | 221° |
| 2026-04-30 20:33 | 9.32974 | -142.06871 | 35941 ft | 488 kts | 221° |
| 2026-04-30 20:34 | 9.24933 | -142.13197 | 35928 ft | 488 kts | 221° |
| 2026-04-30 20:35 | 9.16898 | -142.19514 | 35926 ft | 487 kts | 221° |
| 2026-04-30 20:35 | 9.08892 | -142.25806 | 35927 ft | 487 kts | 221° |
| 2026-04-30 20:36 | 9.03533 | -142.30014 | 35926 ft | 487 kts | 221° |
| 2026-04-30 20:37 | 8.95527 | -142.36299 | 35929 ft | 487 kts | 221° |
| 2026-04-30 20:37 | 8.90177 | -142.40497 | 35937 ft | 487 kts | 221° |
| 2026-04-30 20:38 | 8.84821 | -142.44697 | 35932 ft | 487 kts | 221° |
| 2026-04-30 20:38 | 8.79462 | -142.48899 | 35921 ft | 487 kts | 221° |
| 2026-04-30 20:39 | 8.71416 | -142.55204 | 35919 ft | 487 kts | 221° |
| 2026-04-30 20:40 | 8.63380 | -142.61498 | 35921 ft | 487 kts | 221° |
| 2026-04-30 20:40 | 8.58025 | -142.65690 | 35930 ft | 487 kts | 221° |
| 2026-04-30 20:41 | 8.53682 | -142.69089 | 35936 ft | 487 kts | 221° |
| 2026-04-30 20:41 | 8.48325 | -142.73280 | 35936 ft | 487 kts | 221° |
| 2026-04-30 20:42 | 8.42958 | -142.77477 | 35936 ft | 487 kts | 221° |
| 2026-04-30 20:43 | 8.34909 | -142.83769 | 35934 ft | 487 kts | 221° |
| 2026-04-30 20:43 | 8.29549 | -142.87957 | 35936 ft | 487 kts | 221° |
| 2026-04-30 20:44 | 8.21538 | -142.94213 | 35936 ft | 487 kts | 221° |
| 2026-04-30 20:45 | 8.10808 | -143.02589 | 35921 ft | 488 kts | 221° |
| 2026-04-30 20:45 | 8.05434 | -143.06781 | 35929 ft | 488 kts | 221° |
| 2026-04-30 20:46 | 7.94688 | -143.15160 | 35931 ft | 488 kts | 221° |
| 2026-04-30 20:47 | 7.86635 | -143.21435 | 35936 ft | 488 kts | 221° |
| 2026-04-30 20:48 | 7.78614 | -143.27682 | 35935 ft | 488 kts | 221° |
| 2026-04-30 20:48 | 7.73238 | -143.31868 | 35933 ft | 488 kts | 221° |
| 2026-04-30 20:49 | 7.67862 | -143.36052 | 35920 ft | 488 kts | 221° |
| 2026-04-30 20:50 | 7.59798 | -143.42325 | 35918 ft | 488 kts | 221° |
| 2026-04-30 20:50 | 7.54430 | -143.46499 | 35930 ft | 488 kts | 221° |
| 2026-04-30 20:51 | 7.49055 | -143.50678 | 35931 ft | 487 kts | 221° |
| 2026-04-30 20:51 | 7.41905 | -143.56234 | 35930 ft | 487 kts | 221° |
| 2026-04-30 20:52 | 7.35664 | -143.61083 | 35931 ft | 487 kts | 221° |
| 2026-04-30 20:53 | 7.27607 | -143.67339 | 35927 ft | 487 kts | 221° |
| 2026-04-30 20:53 | 7.23110 | -143.70829 | 35929 ft | 487 kts | 221° |
| 2026-04-30 20:54 | 7.15047 | -143.77085 | 35930 ft | 487 kts | 221° |
| 2026-04-30 20:55 | 7.07026 | -143.83306 | 35923 ft | 487 kts | 221° |
| 2026-04-30 20:55 | 7.01654 | -143.87471 | 35928 ft | 487 kts | 221° |
| 2026-04-30 20:56 | 6.93594 | -143.93717 | 35926 ft | 487 kts | 221° |
| 2026-04-30 20:57 | 6.85528 | -143.99965 | 35929 ft | 488 kts | 221° |
| 2026-04-30 20:57 | 6.80150 | -144.04129 | 35931 ft | 488 kts | 221° |
| 2026-04-30 20:58 | 6.72078 | -144.10377 | 35930 ft | 488 kts | 221° |
| 2026-04-30 20:58 | 6.66733 | -144.14513 | 35922 ft | 488 kts | 221° |
| 2026-04-30 20:59 | 6.58663 | -144.20756 | 35930 ft | 488 kts | 221° |
| 2026-04-30 21:00 | 6.47892 | -144.29083 | 35925 ft | 488 kts | 221° |
| 2026-04-30 21:01 | 6.39816 | -144.35324 | 35923 ft | 487 kts | 221° |
| 2026-04-30 21:02 | 6.31746 | -144.41558 | 35927 ft | 487 kts | 221° |
| 2026-04-30 21:02 | 6.26400 | -144.45686 | 35935 ft | 487 kts | 221° |
| 2026-04-30 21:03 | 6.21028 | -144.49833 | 35929 ft | 487 kts | 221° |
| 2026-04-30 21:03 | 6.15657 | -144.53979 | 35923 ft | 487 kts | 221° |
| 2026-04-30 21:04 | 6.10282 | -144.58126 | 35926 ft | 486 kts | 221° |
| 2026-04-30 21:04 | 6.02230 | -144.64336 | 35922 ft | 486 kts | 221° |
| 2026-04-30 21:05 | 5.96860 | -144.68477 | 35925 ft | 486 kts | 221° |
| 2026-04-30 21:05 | 5.91525 | -144.72590 | 35914 ft | 487 kts | 221° |
| 2026-04-30 21:06 | 5.86149 | -144.76733 | 35927 ft | 487 kts | 221° |
| 2026-04-30 21:06 | 5.80769 | -144.80879 | 35930 ft | 487 kts | 221° |
| 2026-04-30 21:07 | 5.75391 | -144.85021 | 35927 ft | 487 kts | 221° |
| 2026-04-30 21:07 | 5.70019 | -144.89158 | 35925 ft | 487 kts | 221° |
| 2026-04-30 21:08 | 5.64642 | -144.93299 | 35927 ft | 487 kts | 221° |
| 2026-04-30 21:08 | 5.59294 | -144.97415 | 35926 ft | 487 kts | 221° |
| 2026-04-30 21:09 | 5.53910 | -145.01559 | 35911 ft | 487 kts | 221° |
| 2026-04-30 21:09 | 5.48538 | -145.05692 | 35921 ft | 487 kts | 221° |
| 2026-04-30 21:10 | 5.43193 | -145.09803 | 35928 ft | 487 kts | 221° |
| 2026-04-30 21:10 | 5.38688 | -145.13268 | 35914 ft | 487 kts | 221° |
| 2026-04-30 21:11 | 5.36171 | -145.15204 | 35930 ft | 487 kts | 221° |
| 2026-04-30 21:11 | 5.30796 | -145.19336 | 35927 ft | 487 kts | 221° |
| 2026-04-30 21:12 | 5.25412 | -145.23474 | 35912 ft | 487 kts | 221° |
| 2026-04-30 21:12 | 5.20038 | -145.27605 | 35918 ft | 487 kts | 221° |
| 2026-04-30 21:13 | 5.14659 | -145.31737 | 35924 ft | 486 kts | 221° |
| 2026-04-30 21:13 | 5.09279 | -145.35871 | 35924 ft | 486 kts | 221° |
| 2026-04-30 21:14 | 5.03910 | -145.39996 | 35908 ft | 486 kts | 221° |
| 2026-04-30 21:14 | 4.98568 | -145.44097 | 35912 ft | 486 kts | 221° |
| 2026-04-30 21:15 | 4.93189 | -145.48227 | 35911 ft | 486 kts | 221° |
| 2026-04-30 21:15 | 4.87818 | -145.52351 | 35913 ft | 486 kts | 221° |
| 2026-04-30 21:16 | 4.82452 | -145.56472 | 35930 ft | 486 kts | 221° |
| 2026-04-30 21:16 | 4.77079 | -145.60597 | 35912 ft | 486 kts | 221° |
| 2026-04-30 21:17 | 4.71710 | -145.64719 | 35909 ft | 486 kts | 221° |
| 2026-04-30 21:17 | 4.66372 | -145.68816 | 35915 ft | 486 kts | 221° |
| 2026-04-30 21:18 | 4.60998 | -145.72940 | 35928 ft | 486 kts | 221° |
| 2026-04-30 21:18 | 4.55617 | -145.77069 | 35906 ft | 487 kts | 221° |
| 2026-04-30 21:19 | 4.50235 | -145.81197 | 35906 ft | 487 kts | 220° |
| 2026-04-30 21:19 | 4.44851 | -145.85326 | 35917 ft | 488 kts | 220° |
| 2026-04-30 21:20 | 4.39458 | -145.89462 | 35928 ft | 488 kts | 220° |
| 2026-04-30 21:20 | 4.34057 | -145.93602 | 35911 ft | 488 kts | 220° |
| 2026-04-30 21:21 | 4.28693 | -145.97714 | 35911 ft | 489 kts | 220° |
| 2026-04-30 21:22 | 4.20591 | -146.03922 | 35906 ft | 489 kts | 220° |
| 2026-04-30 21:23 | 4.09764 | -146.12216 | 35913 ft | 489 kts | 220° |
| 2026-04-30 21:23 | 4.01654 | -146.18427 | 35913 ft | 489 kts | 220° |
| 2026-04-30 21:24 | 3.96239 | -146.22574 | 35914 ft | 489 kts | 220° |
| 2026-04-30 21:24 | 3.90865 | -146.26687 | 35917 ft | 489 kts | 220° |
| 2026-04-30 21:25 | 3.82760 | -146.32891 | 35914 ft | 489 kts | 220° |
| 2026-04-30 21:26 | 3.74648 | -146.39098 | 35915 ft | 489 kts | 220° |
| 2026-04-30 21:27 | 3.66545 | -146.45297 | 35917 ft | 489 kts | 220° |
| 2026-04-30 21:27 | 3.61144 | -146.49428 | 35913 ft | 489 kts | 220° |
| 2026-04-30 21:28 | 3.53064 | -146.55607 | 35912 ft | 489 kts | 220° |
| 2026-04-30 21:29 | 3.44956 | -146.61806 | 35915 ft | 489 kts | 219° |
| 2026-04-30 21:30 | 3.31433 | -146.72143 | 35914 ft | 489 kts | 219° |
| 2026-04-30 21:31 | 3.17888 | -146.82492 | 35908 ft | 490 kts | 219° |
| 2026-04-30 21:32 | 3.09809 | -146.88663 | 35910 ft | 490 kts | 219° |
| 2026-04-30 21:32 | 3.04381 | -146.92808 | 35910 ft | 490 kts | 219° |
| 2026-04-30 21:33 | 2.96251 | -146.99016 | 35914 ft | 490 kts | 219° |
| 2026-04-30 21:34 | 2.90835 | -147.03151 | 35911 ft | 490 kts | 219° |
| 2026-04-30 21:34 | 2.82711 | -147.09353 | 35910 ft | 490 kts | 219° |
| 2026-04-30 21:35 | 2.77293 | -147.13488 | 35909 ft | 490 kts | 219° |
| 2026-04-30 21:35 | 2.71870 | -147.17626 | 35912 ft | 490 kts | 219° |
| 2026-04-30 21:36 | 2.66488 | -147.21733 | 35910 ft | 489 kts | 219° |
| 2026-04-30 21:37 | 2.55656 | -147.29997 | 35908 ft | 489 kts | 219° |
| 2026-04-30 21:37 | 2.50237 | -147.34131 | 35908 ft | 489 kts | 219° |
| 2026-04-30 21:38 | 2.44829 | -147.38256 | 35907 ft | 489 kts | 219° |
| 2026-04-30 21:38 | 2.39421 | -147.42381 | 35904 ft | 489 kts | 219° |
| 2026-04-30 21:39 | 2.34009 | -147.46507 | 35910 ft | 489 kts | 219° |
| 2026-04-30 21:39 | 2.29515 | -147.49934 | 35908 ft | 489 kts | 219° |
| 2026-04-30 21:40 | 2.24107 | -147.54057 | 35909 ft | 489 kts | 219° |
| 2026-04-30 21:40 | 2.18696 | -147.58182 | 35911 ft | 489 kts | 219° |
| 2026-04-30 21:41 | 2.17254 | -147.59282 | 35910 ft | 489 kts | 219° |
| 2026-04-30 21:41 | 2.11881 | -147.63377 | 35908 ft | 489 kts | 219° |
| 2026-04-30 21:42 | 2.06467 | -147.67504 | 35905 ft | 489 kts | 219° |
| 2026-04-30 21:42 | 2.01059 | -147.71626 | 35907 ft | 489 kts | 219° |
| 2026-04-30 21:43 | 1.95650 | -147.75747 | 35906 ft | 489 kts | 219° |
| 2026-04-30 21:43 | 1.90243 | -147.79868 | 35911 ft | 489 kts | 219° |
| 2026-04-30 21:44 | 1.84830 | -147.83992 | 35906 ft | 489 kts | 219° |
| 2026-04-30 21:44 | 1.79459 | -147.88085 | 35910 ft | 488 kts | 219° |
| 2026-04-30 21:45 | 1.74052 | -147.92203 | 35905 ft | 488 kts | 219° |
| 2026-04-30 21:45 | 1.68643 | -147.96324 | 35906 ft | 488 kts | 219° |
| 2026-04-30 21:46 | 1.63230 | -148.00447 | 35907 ft | 488 kts | 219° |
| 2026-04-30 21:46 | 1.57822 | -148.04567 | 35905 ft | 488 kts | 219° |
| 2026-04-30 21:47 | 1.52415 | -148.08684 | 35906 ft | 488 kts | 219° |
| 2026-04-30 21:47 | 1.47032 | -148.12784 | 35905 ft | 488 kts | 219° |
| 2026-04-30 21:48 | 1.41631 | -148.16897 | 35906 ft | 488 kts | 219° |
| 2026-04-30 21:48 | 1.36224 | -148.21014 | 35907 ft | 488 kts | 219° |
| 2026-04-30 21:49 | 1.30837 | -148.25117 | 35907 ft | 488 kts | 219° |
| 2026-04-30 21:49 | 1.25437 | -148.29227 | 35908 ft | 488 kts | 219° |
| 2026-04-30 21:50 | 1.20041 | -148.33336 | 35906 ft | 488 kts | 219° |
| 2026-04-30 21:50 | 1.14628 | -148.37457 | 35912 ft | 488 kts | 219° |
| 2026-04-30 21:51 | 1.09227 | -148.41569 | 35910 ft | 488 kts | 219° |
| 2026-04-30 21:51 | 1.03859 | -148.45655 | 35907 ft | 488 kts | 219° |
| 2026-04-30 21:52 | 0.98452 | -148.49771 | 35910 ft | 488 kts | 219° |
| 2026-04-30 21:52 | 0.93060 | -148.53875 | 35909 ft | 488 kts | 219° |
| 2026-04-30 21:53 | 0.87658 | -148.57987 | 35909 ft | 487 kts | 219° |
| 2026-04-30 21:53 | 0.82263 | -148.62093 | 35906 ft | 487 kts | 218° |
| 2026-04-30 21:54 | 0.76868 | -148.66199 | 35907 ft | 487 kts | 218° |
| 2026-04-30 21:54 | 0.71471 | -148.70306 | 35910 ft | 487 kts | 218° |
| 2026-04-30 21:55 | 0.66110 | -148.74387 | 35908 ft | 487 kts | 218° |
| 2026-04-30 21:55 | 0.60716 | -148.78492 | 35909 ft | 487 kts | 218° |
| 2026-04-30 21:56 | 0.55326 | -148.82593 | 35911 ft | 487 kts | 218° |
| 2026-04-30 21:56 | 0.49932 | -148.86698 | 35911 ft | 487 kts | 218° |
| 2026-04-30 21:57 | 0.44532 | -148.90807 | 35908 ft | 487 kts | 218° |
| 2026-04-30 21:57 | 0.39175 | -148.94884 | 35907 ft | 487 kts | 218° |
| 2026-04-30 21:58 | 0.33784 | -148.98986 | 35906 ft | 487 kts | 218° |
| 2026-04-30 21:58 | 0.28390 | -149.03090 | 35907 ft | 487 kts | 218° |
| 2026-04-30 21:59 | 0.22999 | -149.07193 | 35907 ft | 487 kts | 218° |
| 2026-04-30 22:00 | 0.14904 | -149.13353 | 35906 ft | 487 kts | 218° |
| 2026-04-30 22:00 | 0.06805 | -149.19516 | 35905 ft | 488 kts | 218° |
| 2026-04-30 22:01 | 0.01399 | -149.23629 | 35905 ft | 488 kts | 218° |
| 2026-04-30 22:01 | -0.03974 | -149.27716 | 35908 ft | 488 kts | 218° |
| 2026-04-30 22:02 | -0.09381 | -149.31832 | 35912 ft | 488 kts | 218° |
| 2026-04-30 22:02 | -0.14795 | -149.35952 | 35906 ft | 489 kts | 218° |
| 2026-04-30 22:03 | -0.20212 | -149.40074 | 35904 ft | 489 kts | 218° |
| 2026-04-30 22:03 | -0.25630 | -149.44198 | 35910 ft | 489 kts | 218° |
| 2026-04-30 22:04 | -0.31017 | -149.48298 | 35908 ft | 490 kts | 218° |
| 2026-04-30 22:05 | -0.39184 | -149.54508 | 35910 ft | 490 kts | 218° |
| 2026-04-30 22:05 | -0.44583 | -149.58611 | 35907 ft | 490 kts | 218° |
| 2026-04-30 22:06 | -0.50018 | -149.62744 | 35907 ft | 490 kts | 218° |
| 2026-04-30 22:06 | -0.58162 | -149.68938 | 35908 ft | 491 kts | 218° |
| 2026-04-30 22:07 | -0.63598 | -149.73073 | 35909 ft | 491 kts | 218° |
| 2026-04-30 22:07 | -0.69037 | -149.77210 | 35906 ft | 491 kts | 218° |
| 2026-04-30 22:08 | -0.74439 | -149.81318 | 35909 ft | 491 kts | 218° |
| 2026-04-30 22:08 | -0.79888 | -149.85464 | 35905 ft | 491 kts | 218° |
| 2026-04-30 22:09 | -0.85330 | -149.89603 | 35908 ft | 491 kts | 218° |
| 2026-04-30 22:09 | -0.90775 | -149.93745 | 35906 ft | 491 kts | 218° |
| 2026-04-30 22:10 | -0.96218 | -149.97886 | 35906 ft | 491 kts | 218° |
| 2026-04-30 22:10 | -1.00733 | -150.01320 | 35906 ft | 491 kts | 218° |
| 2026-04-30 22:11 | -1.06320 | -150.05571 | 35904 ft | 491 kts | 218° |
| 2026-04-30 22:12 | -1.11729 | -150.09686 | 35905 ft | 491 kts | 218° |
| 2026-04-30 22:12 | -1.17172 | -150.13828 | 35904 ft | 491 kts | 218° |
| 2026-04-30 22:13 | -1.22626 | -150.17978 | 35905 ft | 492 kts | 218° |
| 2026-04-30 22:13 | -1.26234 | -150.20723 | 35905 ft | 492 kts | 218° |